createdAt,value
2023-04-27T00:01:12.635Z,19.60
2023-04-27T00:04:16.755Z,17.00
2023-04-27T00:07:20.150Z,20.50
2023-04-27T00:10:23.755Z,21.40
2023-04-27T00:13:28.521Z,22.00
2023-04-27T00:16:31.924Z,21.40
2023-04-27T00:19:35.477Z,21.00
2023-04-27T00:22:39.071Z,22.00
2023-04-27T00:25:42.554Z,23.00
2023-04-27T00:28:48.053Z,20.80
2023-04-27T00:31:51.268Z,23.00
2023-04-27T00:34:54.598Z,21.80
2023-04-27T00:37:58.171Z,20.00
2023-04-27T00:41:04.697Z,19.60
2023-04-27T00:44:09.339Z,22.00
2023-04-27T00:47:12.768Z,19.67
2023-04-27T00:50:16.383Z,21.60
2023-04-27T00:53:20.927Z,21.00
2023-04-27T00:56:25.875Z,20.00
2023-04-27T00:59:31.011Z,20.00
2023-04-27T01:02:35.626Z,22.00
2023-04-27T01:05:39.329Z,19.25
2023-04-27T01:08:44.359Z,22.00
2023-04-27T01:11:47.848Z,18.40
2023-04-27T01:14:52.416Z,22.00
2023-04-27T01:17:59.612Z,21.75
2023-04-27T01:21:04.757Z,19.60
2023-04-27T01:24:10.899Z,18.60
2023-04-27T01:27:14.380Z,20.00
2023-04-27T01:30:19.688Z,21.00
2023-04-27T01:33:23.137Z,21.00
2023-04-27T01:36:27.841Z,19.00
2023-04-27T01:39:34.414Z,20.00
2023-04-27T01:42:38.390Z,20.00
2023-04-27T01:45:44.871Z,21.40
2023-04-27T01:48:48.144Z,21.00
2023-04-27T01:51:51.646Z,19.00
2023-04-27T01:54:56.270Z,22.00
2023-04-27T01:57:59.651Z,20.00
2023-04-27T02:01:02.911Z,20.00
2023-04-27T02:04:06.795Z,21.00
2023-04-27T02:07:10.336Z,22.60
2023-04-27T02:10:14.988Z,22.00
2023-04-27T02:13:18.343Z,22.00
2023-04-27T02:16:22.098Z,22.00
2023-04-27T02:19:25.437Z,24.00
2023-04-27T02:22:28.676Z,23.00
2023-04-27T02:25:33.328Z,23.00
2023-04-27T02:28:36.805Z,21.60
2023-04-27T02:31:40.377Z,22.00
2023-04-27T02:34:44.146Z,22.00
2023-04-27T02:37:47.367Z,22.00
2023-04-27T02:40:56.181Z,23.80
2023-04-27T02:43:59.402Z,22.00
2023-04-27T02:47:02.767Z,23.00
2023-04-27T02:50:07.555Z,23.00
2023-04-27T02:53:12.646Z,21.50
2023-04-27T02:56:17.296Z,22.60
2023-04-27T02:59:20.845Z,21.50
2023-04-27T03:02:24.511Z,22.00
2023-04-27T03:05:29.132Z,22.00
2023-04-27T03:08:32.380Z,22.00
2023-04-27T03:11:37.523Z,22.00
2023-04-27T03:14:40.816Z,20.00
2023-04-27T03:17:44.434Z,23.00
2023-04-27T03:20:49.603Z,23.00
2023-04-27T03:23:52.982Z,21.00
2023-04-27T03:26:57.580Z,21.00
2023-04-27T03:30:00.857Z,24.00
2023-04-27T03:33:04.367Z,22.00
2023-04-27T03:36:10.443Z,22.40
2023-04-27T03:39:14.028Z,21.00
2023-04-27T03:42:18.901Z,22.00
2023-04-27T03:45:22.872Z,21.60
2023-04-27T03:48:26.427Z,21.00
2023-04-27T03:51:32.206Z,20.00
2023-04-27T03:54:35.480Z,19.80
2023-04-27T03:57:40.110Z,20.00
2023-04-27T04:00:43.330Z,21.00
2023-04-27T04:03:48.950Z,23.40
2023-04-27T04:06:52.515Z,20.75
2023-04-27T04:09:55.876Z,20.00
2023-04-27T04:13:00.925Z,20.00
2023-04-27T04:16:06.931Z,20.00
2023-04-27T04:19:10.499Z,19.40
2023-04-27T04:22:14.139Z,19.00
2023-04-27T04:25:17.349Z,18.20
2023-04-27T04:28:22.965Z,20.00
2023-04-27T04:31:26.626Z,20.00
2023-04-27T04:34:30.388Z,19.00
2023-04-27T04:37:36.565Z,17.00
2023-04-27T04:40:40.257Z,20.00
2023-04-27T04:43:44.928Z,20.00
2023-04-27T04:46:49.000Z,18.80
2023-04-27T04:49:52.265Z,19.20
2023-04-27T04:52:55.938Z,19.00
2023-04-27T04:55:59.246Z,19.40
2023-04-27T04:59:04.475Z,19.20
2023-04-27T05:02:08.570Z,20.00
2023-04-27T05:05:11.806Z,19.00
2023-04-27T05:08:15.189Z,20.50
2023-04-27T05:11:18.369Z,20.50
2023-04-27T05:14:23.196Z,20.00
2023-04-27T05:17:26.623Z,22.00
2023-04-27T05:20:29.947Z,21.50
2023-04-27T05:23:33.247Z,20.00
2023-04-27T05:26:36.543Z,22.00
2023-04-27T05:29:41.192Z,21.25
2023-04-27T05:32:44.642Z,20.50
2023-04-27T05:35:48.320Z,21.60
2023-04-27T05:38:51.747Z,22.00
2023-04-27T05:41:55.167Z,22.00
2023-04-27T05:44:59.750Z,22.00
2023-04-27T05:48:03.053Z,22.00
2023-04-27T05:51:06.795Z,20.25
2023-04-27T05:54:10.209Z,24.00
2023-04-27T05:57:13.632Z,22.00
2023-04-27T06:00:20.186Z,20.60
2023-04-27T06:03:23.649Z,22.00
2023-04-27T06:06:27.963Z,22.00
2023-04-27T06:09:32.364Z,21.25
2023-04-27T06:12:35.610Z,21.50
2023-04-27T06:15:40.252Z,19.00
2023-04-27T06:18:43.545Z,20.80
2023-04-27T06:21:46.815Z,18.60
2023-04-27T06:24:50.073Z,22.00
2023-04-27T06:27:53.331Z,19.50
2023-04-27T06:30:57.977Z,19.50
2023-04-27T06:34:01.333Z,21.00
2023-04-27T06:37:04.604Z,17.00
2023-04-27T06:40:08.901Z,19.60
2023-04-27T06:43:12.149Z,16.60
2023-04-27T06:46:17.059Z,18.00
2023-04-27T06:49:20.344Z,15.80
2023-04-27T06:52:23.759Z,18.33
2023-04-27T06:55:27.004Z,19.00
2023-04-27T06:58:30.281Z,18.00
2023-04-27T07:01:35.276Z,20.00
2023-04-27T07:04:38.606Z,18.60
2023-04-27T07:07:41.906Z,17.00
2023-04-27T07:10:45.318Z,12.25
2023-04-27T07:13:48.644Z,16.40
2023-04-27T07:16:53.314Z,16.00
2023-04-27T07:19:56.579Z,14.60
2023-04-27T07:22:59.821Z,12.75
2023-04-27T07:26:03.216Z,12.50
2023-04-27T07:29:18.876Z,8.00
2023-04-27T07:32:28.444Z,8.00
2023-04-27T07:35:32.066Z,8.00
2023-04-27T07:38:35.682Z,5.60
2023-04-27T07:41:39.327Z,6.00
2023-04-27T07:44:42.748Z,9.00
2023-04-27T07:47:47.674Z,5.75
2023-04-27T07:50:51.101Z,4.00
2023-04-27T07:53:54.343Z,9.00
2023-04-27T07:56:57.616Z,7.00
2023-04-27T08:00:00.963Z,5.80
2023-04-27T08:03:06.320Z,10.00
2023-04-27T08:06:10.152Z,9.00
2023-04-27T08:09:14.556Z,6.60
2023-04-27T08:12:19.426Z,8.00
2023-04-27T08:15:22.759Z,10.80
2023-04-27T08:18:27.870Z,7.40
2023-04-27T08:21:31.376Z,10.00
2023-04-27T08:24:34.885Z,8.40
2023-04-27T08:27:38.838Z,8.00
2023-04-27T08:30:43.865Z,8.20
2023-04-27T08:33:48.475Z,6.20
2023-04-27T08:36:51.805Z,8.00
2023-04-27T08:39:55.063Z,10.00
2023-04-27T08:43:00.149Z,6.00
2023-04-27T08:46:04.069Z,7.40
2023-04-27T08:49:09.981Z,6.00
2023-04-27T08:52:14.502Z,9.60
2023-04-27T08:55:18.100Z,8.60
2023-04-27T08:58:21.349Z,9.00
2023-04-27T09:01:25.414Z,7.00
2023-04-27T09:04:41.176Z,9.00
2023-04-27T09:07:44.555Z,8.00
2023-04-27T09:10:49.141Z,4.40
2023-04-27T09:13:52.769Z,5.40
2023-04-27T09:16:57.716Z,6.40
2023-04-27T09:20:10.887Z,6.00
2023-04-27T09:23:27.951Z,6.60
2023-04-27T09:26:32.063Z,5.80
2023-04-27T09:29:37.403Z,6.40
2023-04-27T09:32:40.750Z,5.60
2023-04-27T09:35:47.844Z,7.00
2023-04-27T09:38:52.833Z,6.00
2023-04-27T09:41:56.251Z,7.00
2023-04-27T09:45:02.411Z,6.00
2023-04-27T09:48:07.018Z,7.00
2023-04-27T09:51:11.684Z,7.00
2023-04-27T09:54:17.257Z,6.20
2023-04-27T09:57:34.067Z,8.00
2023-04-27T10:00:49.915Z,6.75
2023-04-27T10:04:07.561Z,8.25
2023-04-27T10:07:13.546Z,9.25
2023-04-27T10:10:20.656Z,10.00
2023-04-27T10:13:26.344Z,8.00
2023-04-27T10:16:41.427Z,8.00
2023-04-27T10:19:58.277Z,7.00
2023-04-27T10:23:03.309Z,10.00
2023-04-27T10:26:09.056Z,6.80
2023-04-27T10:29:12.677Z,8.20
2023-04-27T10:32:23.315Z,9.00
2023-04-27T10:35:35.364Z,10.00
2023-04-27T10:38:41.919Z,7.60
2023-04-27T10:41:52.244Z,10.00
2023-04-27T10:44:57.979Z,9.00
2023-04-27T10:48:02.778Z,7.00
2023-04-27T10:51:06.709Z,8.00
2023-04-27T10:54:11.368Z,7.40
2023-04-27T10:57:15.025Z,8.00
2023-04-27T11:00:24.097Z,8.50
2023-04-27T11:03:28.924Z,7.00
2023-04-27T11:06:33.774Z,9.20
2023-04-27T11:09:39.277Z,8.00
2023-04-27T11:12:42.842Z,9.00
2023-04-27T11:15:48.123Z,9.00
2023-04-27T11:18:51.583Z,10.00
2023-04-27T11:22:04.710Z,9.00
2023-04-27T11:25:10.739Z,7.00
2023-04-27T11:28:19.271Z,10.00
2023-04-27T11:31:22.742Z,10.20
2023-04-27T11:34:27.059Z,7.80
2023-04-27T11:37:30.630Z,10.00
2023-04-27T11:40:37.476Z,9.20
2023-04-27T11:43:43.315Z,9.67
2023-04-27T11:46:47.737Z,8.00
2023-04-27T11:49:52.243Z,9.00
2023-04-27T11:52:56.331Z,7.40
2023-04-27T11:56:05.205Z,9.40
2023-04-27T11:59:20.561Z,9.40
2023-04-27T12:02:24.521Z,9.00
2023-04-27T12:05:28.115Z,6.00
2023-04-27T12:08:31.491Z,9.00
2023-04-27T12:11:36.146Z,8.00
2023-04-27T12:14:39.452Z,7.00
2023-04-27T12:17:42.989Z,10.00
2023-04-27T12:20:47.096Z,9.00
2023-04-27T12:23:50.305Z,6.60
2023-04-27T12:26:55.004Z,6.25
2023-04-27T12:29:59.589Z,8.00
2023-04-27T12:33:09.712Z,9.60
2023-04-27T12:36:13.067Z,8.00
2023-04-27T12:39:19.881Z,9.00
2023-04-27T12:42:24.865Z,8.00
2023-04-27T12:45:28.174Z,7.75
2023-04-27T12:48:32.056Z,10.00
2023-04-27T12:51:36.229Z,7.00
2023-04-27T12:54:39.496Z,7.20
2023-04-27T12:57:44.150Z,10.00
2023-04-27T13:00:47.611Z,11.00
2023-04-27T13:03:51.008Z,6.60
2023-04-27T13:06:54.385Z,7.50
2023-04-27T13:09:57.606Z,11.00
2023-04-27T13:13:02.491Z,10.00
2023-04-27T13:16:06.098Z,9.50
2023-04-27T13:19:09.410Z,10.50
2023-04-27T13:22:13.474Z,9.00
2023-04-27T13:25:17.560Z,11.00
2023-04-27T13:28:22.215Z,10.25
2023-04-27T13:31:25.782Z,10.60
2023-04-27T13:34:29.083Z,10.00
2023-04-27T13:40:35.946Z,10.00
2023-04-27T13:43:40.614Z,9.00
2023-04-27T13:46:43.951Z,9.20
2023-04-27T13:49:47.197Z,9.50
2023-04-27T13:52:50.712Z,9.00
2023-04-27T13:55:54.385Z,10.00
2023-04-27T13:58:59.053Z,8.00
2023-04-27T14:02:02.399Z,11.40
2023-04-27T14:05:06.622Z,8.60
2023-04-27T14:08:10.358Z,9.75
2023-04-27T14:11:13.711Z,9.00
2023-04-27T14:14:18.315Z,8.00
2023-04-27T14:17:21.569Z,8.00
2023-04-27T14:20:25.335Z,8.00
2023-04-27T14:23:28.909Z,9.00
2023-04-27T14:26:32.159Z,10.00
2023-04-27T14:29:36.825Z,9.00
2023-04-27T14:32:40.199Z,8.50
2023-04-27T14:35:43.476Z,10.20
2023-04-27T14:38:47.456Z,6.80
2023-04-27T14:41:51.216Z,6.00
2023-04-27T14:44:55.872Z,7.00
2023-04-27T14:47:59.143Z,6.00
2023-04-27T14:51:02.479Z,8.00
2023-04-27T14:54:08.039Z,6.75
2023-04-27T14:57:11.321Z,8.00
2023-04-27T15:00:17.645Z,6.00
2023-04-27T15:03:21.112Z,7.50
2023-04-27T15:06:28.080Z,7.00
2023-04-27T15:09:31.336Z,8.75
2023-04-27T15:12:34.571Z,8.40
2023-04-27T15:15:39.421Z,8.40
2023-04-27T15:18:43.230Z,8.25
2023-04-27T15:21:48.258Z,7.60
2023-04-27T15:24:51.915Z,8.00
2023-04-27T15:27:55.136Z,8.40
2023-04-27T15:31:00.164Z,6.00
2023-04-27T15:34:03.851Z,9.00
2023-04-27T15:37:07.106Z,10.00
2023-04-27T15:40:11.676Z,7.00
2023-04-27T15:43:15.101Z,11.00
2023-04-27T15:46:20.077Z,9.40
2023-04-27T15:49:23.607Z,9.00
2023-04-27T15:52:27.218Z,9.00
2023-04-27T15:55:30.587Z,7.20
2023-04-27T15:58:33.936Z,8.60
2023-04-27T16:01:38.686Z,10.00
2023-04-27T16:04:41.894Z,11.00
2023-04-27T16:07:46.554Z,10.00
2023-04-27T16:10:50.655Z,8.40
2023-04-27T16:13:53.840Z,11.40
2023-04-27T16:17:02.769Z,10.40
2023-04-27T16:20:07.553Z,9.00
2023-04-27T16:23:10.793Z,11.00
2023-04-27T16:26:14.225Z,12.00
2023-04-27T16:29:17.444Z,10.00
2023-04-27T16:32:22.170Z,10.60
2023-04-27T16:35:25.399Z,9.00
2023-04-27T16:38:28.718Z,8.60
2023-04-27T16:41:31.928Z,9.60
2023-04-27T16:44:35.151Z,8.80
2023-04-27T16:47:39.845Z,6.80
2023-04-27T16:50:43.251Z,11.00
2023-04-27T16:53:48.109Z,9.00
2023-04-27T16:56:53.169Z,11.60
2023-04-27T16:59:57.851Z,10.00
2023-04-27T17:03:02.554Z,11.20
2023-04-27T17:06:06.085Z,8.75
2023-04-27T17:09:10.247Z,9.80
2023-04-27T17:12:14.930Z,9.60
2023-04-27T17:15:18.543Z,11.00
2023-04-27T17:18:23.233Z,13.00
2023-04-27T17:21:27.554Z,10.00
2023-04-27T17:24:30.921Z,10.00
2023-04-27T17:27:34.337Z,10.00
2023-04-27T17:30:37.672Z,9.00
2023-04-27T17:33:43.606Z,8.33
2023-04-27T17:36:47.557Z,11.60
2023-04-27T17:39:53.109Z,11.00
2023-04-27T17:42:57.938Z,12.00
2023-04-27T17:46:01.425Z,10.00
2023-04-27T17:49:06.346Z,10.60
2023-04-27T17:52:10.208Z,10.00
2023-04-27T17:55:13.483Z,13.00
2023-04-27T17:58:17.258Z,14.80
2023-04-27T18:01:21.005Z,13.00
2023-04-27T18:04:26.860Z,11.40
2023-04-27T18:07:30.543Z,11.00
2023-04-27T18:10:33.874Z,7.20
2023-04-27T18:13:37.195Z,14.00
2023-04-27T18:16:40.508Z,12.00
2023-04-27T18:19:45.144Z,11.50
2023-04-27T18:22:48.471Z,12.00
2023-04-27T18:25:51.803Z,12.00
2023-04-27T18:28:55.014Z,12.00
2023-04-27T18:31:58.593Z,11.50
2023-04-27T18:35:03.678Z,9.60
2023-04-27T18:38:07.204Z,11.00
2023-04-27T18:41:10.820Z,12.00
2023-04-27T18:44:14.285Z,11.60
2023-04-27T18:47:17.718Z,13.60
2023-04-27T18:50:22.490Z,10.00
2023-04-27T18:53:26.182Z,13.00
2023-04-27T18:56:29.544Z,16.50
2023-04-27T18:59:33.093Z,14.00
2023-04-27T19:02:36.636Z,18.00
2023-04-27T19:05:43.167Z,16.50
2023-04-27T19:08:47.168Z,15.60
2023-04-27T19:12:00.047Z,17.80
2023-04-27T19:15:06.513Z,20.80
2023-04-27T19:18:11.613Z,20.00
2023-04-27T19:21:16.591Z,22.00
2023-04-27T19:24:19.861Z,22.60
2023-04-27T19:27:23.297Z,22.00
2023-04-27T19:30:26.802Z,20.00
2023-04-27T19:33:30.001Z,18.80
2023-04-27T19:36:34.602Z,22.00
2023-04-27T19:39:37.948Z,14.40
2023-04-27T19:42:41.149Z,16.40
2023-04-27T19:45:44.388Z,13.20
2023-04-27T19:48:47.639Z,12.75
2023-04-27T19:51:52.493Z,14.00
2023-04-27T19:54:55.942Z,16.00
2023-04-27T19:57:59.159Z,15.00
2023-04-27T20:01:02.830Z,15.00
2023-04-27T20:04:06.339Z,13.00
2023-04-27T20:07:11.148Z,12.40
2023-04-27T20:10:14.434Z,14.00
2023-04-27T20:13:17.738Z,9.00
2023-04-27T20:16:21.731Z,12.80
2023-04-27T20:19:25.301Z,12.00
2023-04-27T20:22:30.428Z,10.00
2023-04-27T20:25:34.418Z,14.00
2023-04-27T20:28:37.710Z,11.00
2023-04-27T20:31:41.422Z,12.00
2023-04-27T20:34:44.761Z,13.20
2023-04-27T20:37:49.334Z,12.40
2023-04-27T20:40:54.784Z,12.00
2023-04-27T20:43:58.709Z,12.60
2023-04-27T20:47:02.051Z,11.00
2023-04-27T20:50:06.343Z,13.00
2023-04-27T20:53:11.150Z,15.00
2023-04-27T20:56:15.207Z,13.40
2023-04-27T20:59:18.410Z,20.00
2023-04-27T21:02:22.188Z,13.00
2023-04-27T21:05:25.871Z,12.00
2023-04-27T21:08:31.309Z,13.00
2023-04-27T21:11:34.521Z,13.00
2023-04-27T21:14:37.924Z,12.75
2023-04-27T21:17:41.812Z,13.40
2023-04-27T21:20:45.305Z,14.40
2023-04-27T21:24:00.569Z,13.00
2023-04-27T21:27:11.559Z,10.40
2023-04-27T21:30:15.017Z,11.00
2023-04-27T21:33:18.562Z,13.40
2023-04-27T21:36:21.860Z,9.25
2023-04-27T21:39:26.786Z,13.40
2023-04-27T21:42:30.044Z,12.40
2023-04-27T21:45:33.794Z,12.00
2023-04-27T21:48:37.212Z,13.20
2023-04-27T21:51:40.608Z,10.00
2023-04-27T21:54:45.246Z,12.00
2023-04-27T21:57:48.534Z,13.00
2023-04-27T22:00:51.993Z,13.80
2023-04-27T22:03:55.691Z,13.40
2023-04-27T22:06:59.172Z,14.40
2023-04-27T22:10:03.938Z,12.50
2023-04-27T22:13:17.704Z,13.00
2023-04-27T22:16:22.197Z,11.00
2023-04-27T22:19:26.297Z,12.80
2023-04-27T22:22:29.644Z,15.00
2023-04-27T22:25:34.738Z,14.00
2023-04-27T22:28:38.509Z,11.00
2023-04-27T22:31:42.428Z,13.00
2023-04-27T22:34:46.124Z,16.00
2023-04-27T22:37:49.667Z,16.20
2023-04-27T22:40:54.311Z,14.00
2023-04-27T22:43:57.627Z,17.00
2023-04-27T22:47:02.429Z,12.80
2023-04-27T22:50:06.763Z,14.60
2023-04-27T22:53:10.059Z,12.00
2023-04-27T22:56:14.686Z,11.25
2023-04-27T22:59:22.672Z,14.00
2023-04-27T23:02:26.020Z,11.00
2023-04-27T23:05:30.204Z,13.00
2023-04-27T23:08:33.518Z,14.60
2023-04-27T23:11:38.160Z,16.00
2023-04-27T23:14:42.345Z,17.20
2023-04-27T23:17:45.694Z,16.60
2023-04-27T23:20:53.169Z,16.50
2023-04-27T23:23:56.947Z,14.75
2023-04-27T23:27:01.764Z,13.50
2023-04-27T23:30:05.733Z,16.40
2023-04-27T23:33:08.993Z,15.40
2023-04-27T23:36:12.751Z,15.00
2023-04-27T23:39:15.987Z,16.00
2023-04-27T23:42:20.699Z,17.80
2023-04-27T23:45:24.093Z,18.00
2023-04-27T23:48:27.651Z,18.60
2023-04-27T23:51:31.011Z,19.00
2023-04-27T23:54:34.268Z,18.00
2023-04-27T23:57:38.883Z,19.00
